Time;durP1;ratioP1;P1;durP2;ratioP2;P2;SDS_P1;SDS_P2;PMS_P1;PMS_P2;Temp;Humidity;BMP_temperature;BMP_pressure;BME280_temperature;BME280_humidity;BME280_pressure;Samples;Min_cycle;Max_cycle;Signal;HPM_P1;HPM_P2
2023/06/15 00:01:13;;;;;;;;;;;24.30;44.90;;;;;;5072272;28;20457;-64
2023/06/15 00:03:41;;;;;;;;;;;24.30;44.90;;;;;;5072362;28;19925;-64
2023/06/15 00:06:06;;;;;;;;;;;24.30;44.90;;;;;;5071063;28;20007;-65
2023/06/15 00:08:32;;;;;;;;;;;24.30;44.90;;;;;;5071017;28;20380;-64
2023/06/15 00:10:57;;;;;;;;;;;24.30;44.90;;;;;;5053966;28;19932;-65
2023/06/15 00:13:23;;;;;;;;;;;24.30;44.90;;;;;;5054118;28;19920;-64
2023/06/15 00:15:48;;;;;;;;;;;24.20;44.90;;;;;;5072199;28;19925;-65
2023/06/15 00:18:14;;;;;;;;;;;24.20;44.90;;;;;;5070930;28;19927;-65
2023/06/15 00:20:39;;;;;;;;;;;24.30;45.00;;;;;;5054386;28;19929;-64
2023/06/15 00:23:05;;;;;;;;;;;24.20;44.90;;;;;;5054103;28;19928;-64
2023/06/15 00:25:33;;;;;;;;;;;24.20;45.70;;;;;;5072032;28;19920;-64
2023/06/15 00:27:58;;;;;;;;;;;24.20;45.00;;;;;;5072256;28;19947;-65
2023/06/15 00:30:24;;;;;;;;;;;24.20;45.00;;;;;;5054251;28;19920;-64
2023/06/15 00:32:49;;;;;;;;;;;24.20;45.00;;;;;;5054057;28;19943;-65
2023/06/15 00:35:15;;;;;;;;;;;24.10;44.90;;;;;;5054215;28;19958;-64
2023/06/15 00:37:40;;;;;;;;;;;24.20;45.00;;;;;;5070959;28;19964;-64
2023/06/15 00:40:06;;;;;;;;;;;24.10;45.00;;;;;;5054272;28;20410;-65
2023/06/15 00:42:32;;;;;;;;;;;24.10;45.00;;;;;;5054012;28;20368;-64
2023/06/15 00:44:57;;;;;;;;;;;24.10;45.00;;;;;;5054174;28;19921;-64
2023/06/15 00:47:23;;;;;;;;;;;24.10;45.00;;;;;;5053205;28;19928;-65
2023/06/15 00:49:49;;;;;;;;;;;24.10;45.00;;;;;;5071626;28;19921;-65
2023/06/15 00:52:16;;;;;;;;;;;24.10;45.00;;;;;;5072024;28;20288;-64
2023/06/15 00:54:43;;;;;;;;;;;24.10;45.10;;;;;;5054192;28;20067;-64
2023/06/15 00:57:10;;;;;;;;;;;24.10;45.00;;;;;;5054223;28;19920;-64
2023/06/15 00:59:37;;;;;;;;;;;24.00;45.00;;;;;;5054094;28;19928;-64
2023/06/15 01:02:03;;;;;;;;;;;24.00;45.00;;;;;;5071859;28;20292;-65
2023/06/15 01:04:29;;;;;;;;;;;24.00;45.00;;;;;;5054150;28;20359;-65
2023/06/15 01:06:57;;;;;;;;;;;24.00;45.00;;;;;;5053946;28;19927;-64
2023/06/15 01:09:23;;;;;;;;;;;24.00;45.00;;;;;;5071740;28;19928;-65
2023/06/15 01:11:52;;;;;;;;;;;24.00;45.10;;;;;;5053465;28;19970;-64
2023/06/15 01:14:20;;;;;;;;;;;24.00;45.10;;;;;;5053764;28;19921;-65
2023/06/15 01:16:52;;;;;;;;;;;24.00;45.10;;;;;;5053604;28;19970;-65
2023/06/15 01:19:37;;;;;;;;;;;23.90;45.80;;;;;;5055952;28;19927;-65
2023/06/15 01:22:11;;;;;;;;;;;24.00;45.10;;;;;;5074958;28;19974;-64
2023/06/15 01:24:38;;;;;;;;;;;24.00;45.20;;;;;;5057538;28;19963;-64
2023/06/15 01:27:04;;;;;;;;;;;23.90;45.10;;;;;;5057185;28;20459;-64
2023/06/15 01:29:31;;;;;;;;;;;23.90;45.10;;;;;;5057375;28;19970;-64
2023/06/15 01:31:57;;;;;;;;;;;23.90;45.80;;;;;;5056872;28;19924;-64
2023/06/15 01:34:23;;;;;;;;;;;23.90;45.10;;;;;;5073969;28;19977;-65
2023/06/15 01:36:48;;;;;;;;;;;23.90;45.10;;;;;;5057239;28;19921;-64
2023/06/15 01:39:14;;;;;;;;;;;23.90;45.10;;;;;;5074906;28;19927;-64
2023/06/15 01:41:39;;;;;;;;;;;23.80;45.00;;;;;;5075112;28;19924;-64
2023/06/15 01:44:05;;;;;;;;;;;23.80;45.10;;;;;;5057183;28;19924;-64
2023/06/15 01:46:31;;;;;;;;;;;23.90;45.10;;;;;;5056773;28;19921;-64
2023/06/15 01:48:57;;;;;;;;;;;23.90;45.20;;;;;;5056999;28;19924;-64
2023/06/15 01:51:23;;;;;;;;;;;23.80;45.10;;;;;;5055921;28;19928;-64
2023/06/15 01:53:48;;;;;;;;;;;23.80;45.10;;;;;;5074573;28;19924;-64
2023/06/15 01:56:15;;;;;;;;;;;23.80;45.20;;;;;;5074637;28;19943;-64
2023/06/15 01:58:40;;;;;;;;;;;23.80;45.10;;;;;;5074622;28;19920;-64
2023/06/15 02:01:06;;;;;;;;;;;23.80;45.20;;;;;;5074520;28;19974;-65
2023/06/15 02:03:32;;;;;;;;;;;23.80;45.20;;;;;;5056491;28;19920;-64
2023/06/15 02:05:57;;;;;;;;;;;23.70;45.20;;;;;;5074444;28;19924;-64
2023/06/15 02:08:23;;;;;;;;;;;23.70;45.20;;;;;;5056672;28;19920;-64
2023/06/15 02:10:48;;;;;;;;;;;23.70;45.10;;;;;;5056271;28;19928;-64
2023/06/15 02:13:14;;;;;;;;;;;23.70;45.20;;;;;;5074297;28;19924;-64
2023/06/15 02:15:40;;;;;;;;;;;23.70;45.20;;;;;;5056312;28;20383;-65
2023/06/15 02:18:11;;;;;;;;;;;23.70;45.20;;;;;;5056485;28;19921;-65
2023/06/15 02:20:41;;;;;;;;;;;23.70;45.20;;;;;;5056242;28;19924;-65
2023/06/15 02:23:06;;;;;;;;;;;23.70;45.20;;;;;;5056130;28;19928;-64
2023/06/15 02:25:32;;;;;;;;;;;23.70;45.20;;;;;;5056383;28;19920;-68
2023/06/15 02:27:57;;;;;;;;;;;23.60;45.20;;;;;;5056290;28;19966;-64
2023/06/15 02:30:25;;;;;;;;;;;23.70;45.20;;;;;;5073902;28;20007;-64
2023/06/15 02:32:52;;;;;;;;;;;23.60;45.20;;;;;;5072410;28;19920;-64
2023/06/15 02:35:18;;;;;;;;;;;23.60;45.30;;;;;;5055832;28;20010;-64
2023/06/15 02:37:43;;;;;;;;;;;23.60;45.20;;;;;;5072988;28;19995;-64
2023/06/15 02:40:09;;;;;;;;;;;23.60;45.20;;;;;;5073691;28;20030;-64
2023/06/15 02:42:35;;;;;;;;;;;23.60;45.20;;;;;;5073744;28;19920;-64
2023/06/15 02:45:02;;;;;;;;;;;23.60;45.30;;;;;;5055956;28;19979;-64
2023/06/15 02:47:28;;;;;;;;;;;23.60;45.30;;;;;;5073580;28;20330;-64
2023/06/15 02:49:53;;;;;;;;;;;23.50;45.30;;;;;;5073441;28;19920;-64
2023/06/15 02:52:20;;;;;;;;;;;23.60;45.20;;;;;;5073436;28;19920;-65
2023/06/15 02:54:46;;;;;;;;;;;23.50;45.30;;;;;;5072377;28;19924;-64
2023/06/15 02:57:11;;;;;;;;;;;23.50;45.30;;;;;;5055510;28;20020;-64
2023/06/15 02:59:37;;;;;;;;;;;23.50;45.20;;;;;;5055590;28;19927;-64
2023/06/15 03:02:04;;;;;;;;;;;23.50;45.30;;;;;;5055629;28;19927;-67
2023/06/15 03:04:30;;;;;;;;;;;23.50;45.30;;;;;;5071817;28;19971;-64
2023/06/15 03:06:57;;;;;;;;;;;23.50;45.30;;;;;;5055554;28;19921;-65
2023/06/15 03:09:23;;;;;;;;;;;23.50;45.30;;;;;;5055617;28;19928;-65
2023/06/15 03:11:50;;;;;;;;;;;23.40;45.30;;;;;;5054813;28;19959;-68
2023/06/15 03:14:18;;;;;;;;;;;23.50;45.30;;;;;;5072109;28;20014;-65
2023/06/15 03:16:46;;;;;;;;;;;23.40;45.30;;;;;;5071997;28;19928;-64
2023/06/15 03:19:15;;;;;;;;;;;23.50;45.30;;;;;;5071969;28;19989;-64
2023/06/15 03:21:41;;;;;;;;;;;23.50;45.30;;;;;;5073200;28;20295;-64
2023/06/15 03:24:08;;;;;;;;;;;23.40;45.30;;;;;;5054905;28;19920;-65
2023/06/15 03:26:35;;;;;;;;;;;23.40;45.30;;;;;;5072854;28;20254;-68
2023/06/15 03:29:02;;;;;;;;;;;23.40;45.30;;;;;;5072693;28;19928;-64
2023/06/15 03:31:28;;;;;;;;;;;23.40;45.30;;;;;;5054993;28;19994;-64
2023/06/15 03:33:54;;;;;;;;;;;23.40;45.30;;;;;;5055084;28;19921;-64
2023/06/15 03:36:24;;;;;;;;;;;23.40;45.40;;;;;;5054953;28;20334;-64
2023/06/15 03:38:50;;;;;;;;;;;23.40;45.40;;;;;;5055113;28;19924;-64
2023/06/15 03:41:15;;;;;;;;;;;23.40;45.40;;;;;;5072322;28;20295;-64
2023/06/15 03:43:41;;;;;;;;;;;23.30;45.30;;;;;;5055029;28;19921;-64
2023/06/15 03:46:06;;;;;;;;;;;23.40;45.40;;;;;;5055141;28;20398;-64
2023/06/15 03:48:32;;;;;;;;;;;23.30;45.30;;;;;;5054518;28;19925;-64
2023/06/15 03:50:57;;;;;;;;;;;23.40;45.40;;;;;;5054698;28;19927;-64
2023/06/15 03:53:24;;;;;;;;;;;23.30;45.30;;;;;;5072528;28;19920;-64
2023/06/15 03:55:49;;;;;;;;;;;23.40;45.40;;;;;;5054413;28;19924;-68
2023/06/15 03:58:16;;;;;;;;;;;23.30;45.40;;;;;;5054429;28;20295;-64
2023/06/15 04:00:43;;;;;;;;;;;23.30;45.40;;;;;;5072266;28;19921;-64
2023/06/15 04:03:09;;;;;;;;;;;23.30;45.50;;;;;;5054683;28;19921;-67
2023/06/15 04:05:34;;;;;;;;;;;23.30;45.40;;;;;;5054630;28;19924;-64
2023/06/15 04:08:01;;;;;;;;;;;23.20;45.40;;;;;;5072380;28;20358;-65
2023/06/15 04:10:26;;;;;;;;;;;23.30;45.40;;;;;;5054386;28;19994;-64
2023/06/15 04:12:52;;;;;;;;;;;23.20;45.40;;;;;;5072158;28;19967;-64
2023/06/15 04:15:18;;;;;;;;;;;23.20;45.40;;;;;;5072179;28;19960;-64
2023/06/15 04:17:44;;;;;;;;;;;23.20;45.50;;;;;;5054441;28;19970;-65
2023/06/15 04:20:10;;;;;;;;;;;23.20;45.50;;;;;;5054173;28;19925;-65
2023/06/15 04:22:35;;;;;;;;;;;23.20;45.50;;;;;;5072282;28;19924;-64
2023/06/15 04:25:01;;;;;;;;;;;23.20;45.50;;;;;;5071528;28;19921;-64
2023/06/15 04:27:27;;;;;;;;;;;23.20;45.50;;;;;;5054188;28;19921;-64
2023/06/15 04:29:53;;;;;;;;;;;23.20;45.50;;;;;;5072068;28;20015;-67
2023/06/15 04:32:19;;;;;;;;;;;23.20;45.50;;;;;;5071928;28;20526;-64
2023/06/15 04:34:45;;;;;;;;;;;23.20;45.60;;;;;;5072061;28;19975;-64
2023/06/15 04:37:12;;;;;;;;;;;23.20;45.60;;;;;;5072093;28;20279;-65
2023/06/15 04:39:37;;;;;;;;;;;23.20;45.60;;;;;;5054418;28;20015;-64
2023/06/15 04:42:03;;;;;;;;;;;23.20;45.60;;;;;;5054238;28;19970;-64
2023/06/15 04:44:29;;;;;;;;;;;23.10;45.60;;;;;;5071025;28;20202;-64
2023/06/15 04:46:55;;;;;;;;;;;23.10;45.60;;;;;;5072001;28;19972;-64
2023/06/15 04:49:20;;;;;;;;;;;23.10;45.60;;;;;;5053855;28;19922;-64
2023/06/15 04:51:48;;;;;;;;;;;23.10;45.70;;;;;;5070446;28;19935;-65
2023/06/15 04:54:13;;;;;;;;;;;23.10;45.70;;;;;;5056267;28;20003;-64
2023/06/15 04:56:39;;;;;;;;;;;23.10;45.60;;;;;;5074453;28;20019;-64
2023/06/15 04:59:04;;;;;;;;;;;23.10;45.70;;;;;;5075724;28;19920;-64
2023/06/15 05:01:30;;;;;;;;;;;23.10;45.80;;;;;;5075610;28;19920;-64
2023/06/15 05:03:58;;;;;;;;;;;23.10;45.80;;;;;;5075497;28;19971;-64
2023/06/15 05:06:23;;;;;;;;;;;23.10;45.80;;;;;;5057576;28;19946;-65
2023/06/15 05:08:49;;;;;;;;;;;23.10;45.80;;;;;;5057409;28;20338;-65
2023/06/15 05:11:15;;;;;;;;;;;23.10;45.80;;;;;;5075311;28;20334;-64
2023/06/15 05:13:41;;;;;;;;;;;23.10;45.90;;;;;;5057657;28;20291;-64
2023/06/15 05:16:06;;;;;;;;;;;23.10;46.20;;;;;;5075423;28;20389;-64
2023/06/15 05:18:32;;;;;;;;;;;23.00;45.80;;;;;;5075313;28;20372;-64
2023/06/15 05:20:57;;;;;;;;;;;23.10;45.80;;;;;;5075202;28;20371;-64
2023/06/15 05:23:23;;;;;;;;;;;23.10;45.80;;;;;;5074169;28;19989;-64
2023/06/15 05:25:48;;;;;;;;;;;23.10;45.90;;;;;;5075117;28;20381;-65
2023/06/15 05:28:14;;;;;;;;;;;23.10;45.90;;;;;;5075330;28;19924;-64
2023/06/15 05:30:40;;;;;;;;;;;23.10;45.90;;;;;;5056239;28;19921;-64
2023/06/15 05:33:05;;;;;;;;;;;23.00;45.90;;;;;;5056756;28;20033;-64
2023/06/15 05:35:31;;;;;;;;;;;23.10;46.00;;;;;;5056497;28;20274;-62
2023/06/15 05:37:56;;;;;;;;;;;23.00;45.80;;;;;;5073756;28;19920;-61
2023/06/15 05:40:22;;;;;;;;;;;23.00;46.10;;;;;;5055950;28;20433;-61
2023/06/15 05:42:47;;;;;;;;;;;23.10;46.20;;;;;;5074243;28;19925;-61
2023/06/15 05:45:13;;;;;;;;;;;23.10;46.20;;;;;;5073241;28;19921;-61
2023/06/15 05:47:38;;;;;;;;;;;23.10;46.50;;;;;;5072310;28;20027;-61
2023/06/15 05:50:04;;;;;;;;;;;23.00;46.60;;;;;;5029950;28;19947;-60
2023/06/15 05:52:30;;;;;;;;;;;23.10;46.70;;;;;;5043149;28;19958;-61
2023/06/15 05:54:55;;;;;;;;;;;23.10;47.10;;;;;;5065435;28;19946;-61
2023/06/15 05:57:21;;;;;;;;;;;23.10;47.30;;;;;;5044098;28;19926;-60
2023/06/15 05:59:46;;;;;;;;;;;23.10;47.40;;;;;;5057289;28;19956;-62
2023/06/15 06:02:12;;;;;;;;;;;23.20;47.70;;;;;;5042049;28;19920;-62
2023/06/15 06:04:38;;;;;;;;;;;23.20;47.70;;;;;;5065700;28;19951;-63
2023/06/15 06:07:05;;;;;;;;;;;23.20;47.80;;;;;;5049471;28;19970;-62
2023/06/15 06:09:32;;;;;;;;;;;23.20;47.60;;;;;;5067209;28;20007;-63
2023/06/15 06:11:57;;;;;;;;;;;23.20;47.50;;;;;;5068894;28;19924;-63
2023/06/15 06:14:23;;;;;;;;;;;23.20;47.40;;;;;;5068111;28;20000;-61
2023/06/15 06:16:48;;;;;;;;;;;23.20;47.40;;;;;;5058697;28;19924;-62
2023/06/15 06:19:13;;;;;;;;;;;23.20;47.20;;;;;;5091720;28;20433;-62
2023/06/15 06:21:39;;;;;;;;;;;23.20;47.10;;;;;;5079260;28;19924;-61
2023/06/15 06:24:05;;;;;;;;;;;23.20;47.20;;;;;;5070526;28;19921;-61
2023/06/15 06:26:33;;;;;;;;;;;23.20;47.00;;;;;;5051884;28;19972;-61
2023/06/15 06:28:58;;;;;;;;;;;23.20;47.00;;;;;;5047089;28;19920;-61
2023/06/15 06:31:24;;;;;;;;;;;23.20;47.10;;;;;;5055400;28;19971;-61
2023/06/15 06:33:49;;;;;;;;;;;23.20;47.10;;;;;;5036863;28;20271;-61
2023/06/15 06:36:15;;;;;;;;;;;23.20;47.10;;;;;;5054695;28;20359;-61
2023/06/15 06:38:40;;;;;;;;;;;23.20;47.20;;;;;;5037371;28;20307;-61
2023/06/15 06:41:06;;;;;;;;;;;23.20;47.10;;;;;;5055742;28;19935;-61
2023/06/15 06:43:31;;;;;;;;;;;23.20;47.20;;;;;;5052438;28;19920;-62
2023/06/15 06:45:57;;;;;;;;;;;23.20;47.10;;;;;;5039901;28;20407;-62
2023/06/15 06:48:22;;;;;;;;;;;23.20;47.10;;;;;;5035308;28;20175;-61
2023/06/15 06:50:48;;;;;;;;;;;23.20;47.10;;;;;;5035356;28;20007;-61
2023/06/15 06:53:13;;;;;;;;;;;23.20;47.20;;;;;;5055140;28;20261;-66
2023/06/15 06:55:39;;;;;;;;;;;23.20;47.40;;;;;;5036570;28;20491;-67
2023/06/15 06:58:05;;;;;;;;;;;23.20;47.30;;;;;;5050333;28;20019;-64
2023/06/15 07:00:31;;;;;;;;;;;23.20;47.40;;;;;;5038326;28;20170;-63
2023/06/15 07:02:57;;;;;;;;;;;23.20;47.40;;;;;;5045327;28;19966;-64
2023/06/15 07:05:22;;;;;;;;;;;23.20;47.40;;;;;;5035897;28;19924;-65
2023/06/15 07:07:48;;;;;;;;;;;23.20;47.50;;;;;;5036287;28;19925;-69
2023/06/15 07:10:14;;;;;;;;;;;23.20;47.40;;;;;;5049173;28;20568;-66
2023/06/15 07:12:39;;;;;;;;;;;23.20;47.40;;;;;;5054569;28;20310;-67
2023/06/15 07:15:05;;;;;;;;;;;23.20;47.00;;;;;;5038002;28;19946;-63
2023/06/15 07:17:31;;;;;;;;;;;23.20;46.80;;;;;;5056195;28;19967;-64
2023/06/15 07:19:56;;;;;;;;;;;23.20;46.90;;;;;;5038165;28;19960;-67
2023/06/15 07:22:23;;;;;;;;;;;23.20;46.90;;;;;;5032664;28;19932;-66
2023/06/15 07:24:50;;;;;;;;;;;23.20;46.90;;;;;;5052105;28;19928;-63
2023/06/15 07:27:15;;;;;;;;;;;23.20;46.70;;;;;;5039346;28;19928;-68
2023/06/15 07:29:41;;;;;;;;;;;23.20;46.80;;;;;;5035598;28;19946;-63
2023/06/15 07:32:07;;;;;;;;;;;23.20;46.90;;;;;;5040461;28;20342;-63
2023/06/15 07:34:32;;;;;;;;;;;23.20;46.80;;;;;;5046430;28;20508;-63
2023/06/15 07:36:58;;;;;;;;;;;23.20;46.80;;;;;;5049320;28;19928;-63
2023/06/15 07:39:23;;;;;;;;;;;23.30;46.80;;;;;;5035435;28;19951;-63
2023/06/15 07:41:49;;;;;;;;;;;23.20;46.80;;;;;;5043278;28;19928;-67
2023/06/15 07:44:14;;;;;;;;;;;23.30;46.90;;;;;;5051384;28;20230;-64
2023/06/15 07:46:40;;;;;;;;;;;23.30;46.90;;;;;;5035274;28;20335;-63
2023/06/15 07:49:06;;;;;;;;;;;23.30;46.80;;;;;;5053664;28;19924;-67
2023/06/15 07:51:32;;;;;;;;;;;23.30;46.90;;;;;;5024488;28;19964;-64
2023/06/15 07:53:57;;;;;;;;;;;23.30;46.80;;;;;;5055291;28;20202;-65
2023/06/15 07:56:23;;;;;;;;;;;23.30;46.90;;;;;;5029963;28;19964;-68
2023/06/15 07:58:48;;;;;;;;;;;23.30;47.00;;;;;;5041113;28;20237;-65
2023/06/15 08:01:14;;;;;;;;;;;23.40;47.00;;;;;;5054141;28;20288;-65
2023/06/15 08:03:39;;;;;;;;;;;23.40;46.90;;;;;;5038977;28;19925;-63
2023/06/15 08:06:05;;;;;;;;;;;23.40;47.00;;;;;;5034861;28;19983;-64
2023/06/15 08:08:30;;;;;;;;;;;23.40;47.10;;;;;;5034360;28;19925;-63
2023/06/15 08:10:56;;;;;;;;;;;23.40;47.30;;;;;;5048437;28;19987;-62
2023/06/15 08:13:21;;;;;;;;;;;23.40;47.40;;;;;;5033635;28;19940;-63
2023/06/15 08:15:47;;;;;;;;;;;23.40;47.40;;;;;;5029733;28;19958;-65
2023/06/15 08:18:12;;;;;;;;;;;23.50;47.60;;;;;;5026369;28;19920;-65
2023/06/15 08:20:38;;;;;;;;;;;23.50;47.50;;;;;;5031473;28;19921;-64
2023/06/15 08:23:03;;;;;;;;;;;23.50;47.50;;;;;;5035706;28;19966;-66
2023/06/15 08:25:29;;;;;;;;;;;23.50;47.50;;;;;;5046668;28;19928;-67
2023/06/15 08:27:55;;;;;;;;;;;23.50;47.30;;;;;;5048928;28;19933;-65
2023/06/15 08:30:20;;;;;;;;;;;23.50;47.40;;;;;;5037370;28;19925;-62
2023/06/15 08:32:46;;;;;;;;;;;23.50;47.20;;;;;;5046034;28;19932;-66
2023/06/15 08:35:11;;;;;;;;;;;23.50;47.30;;;;;;5052227;28;19939;-64
2023/06/15 08:37:37;;;;;;;;;;;23.50;46.90;;;;;;5052935;28;20059;-63
2023/06/15 08:40:06;;;;;;;;;;;23.50;47.10;;;;;;5038365;28;19931;-64
2023/06/15 08:42:33;;;;;;;;;;;23.60;47.00;;;;;;5030499;28;19925;-64
2023/06/15 08:44:59;;;;;;;;;;;23.60;46.90;;;;;;5033074;28;19931;-63
2023/06/15 08:47:26;;;;;;;;;;;23.50;46.90;;;;;;5023894;28;19920;-63
2023/06/15 08:49:52;;;;;;;;;;;23.60;47.10;;;;;;5028676;28;20420;-64
2023/06/15 08:52:20;;;;;;;;;;;23.60;47.00;;;;;;5029138;28;20391;-63
2023/06/15 08:54:46;;;;;;;;;;;23.70;46.90;;;;;;5050137;28;19962;-63
2023/06/15 08:57:12;;;;;;;;;;;23.70;46.90;;;;;;5049144;28;19928;-63
2023/06/15 08:59:37;;;;;;;;;;;23.70;46.90;;;;;;5040891;28;19921;-65
2023/06/15 09:02:03;;;;;;;;;;;23.70;46.90;;;;;;5039279;28;19964;-63
2023/06/15 09:04:30;;;;;;;;;;;23.80;46.60;;;;;;5032519;28;20389;-63
2023/06/15 09:06:57;;;;;;;;;;;23.90;46.70;;;;;;5035784;28;20018;-63
2023/06/15 09:09:22;;;;;;;;;;;23.80;46.50;;;;;;5056082;28;19928;-64
2023/06/15 09:11:48;;;;;;;;;;;23.80;46.40;;;;;;5045983;28;20848;-64
2023/06/15 09:14:13;;;;;;;;;;;23.80;46.20;;;;;;5036676;28;19917;-63
2023/06/15 09:16:39;;;;;;;;;;;23.90;46.10;;;;;;5036884;28;20414;-63
2023/06/15 09:19:11;;;;;;;;;;;23.90;45.80;;;;;;5035261;28;19928;-64
2023/06/15 09:21:41;;;;;;;;;;;23.90;45.40;;;;;;5057590;28;19923;-68
2023/06/15 09:24:07;;;;;;;;;;;23.90;45.30;;;;;;5037418;28;19920;-64
2023/06/15 09:26:32;;;;;;;;;;;24.00;45.00;;;;;;5032523;28;19971;-63
2023/06/15 09:28:58;;;;;;;;;;;24.00;45.20;;;;;;5055408;28;19928;-63
2023/06/15 09:31:28;;;;;;;;;;;24.00;45.20;;;;;;5038392;28;19932;-66
2023/06/15 09:33:59;;;;;;;;;;;24.10;45.10;;;;;;5054179;28;19925;-62
2023/06/15 09:36:32;;;;;;;;;;;24.10;44.80;;;;;;5053946;28;19931;-62
2023/06/15 09:38:57;;;;;;;;;;;24.10;44.60;;;;;;5039425;28;19929;-61
2023/06/15 09:41:23;;;;;;;;;;;24.10;43.70;;;;;;5036921;28;19924;-64
2023/06/15 09:43:51;;;;;;;;;;;24.10;44.10;;;;;;5054432;28;20256;-65
2023/06/15 09:46:19;;;;;;;;;;;24.20;44.20;;;;;;5055316;28;19979;-64
2023/06/15 09:48:46;;;;;;;;;;;24.20;43.90;;;;;;5053813;28;19924;-64
2023/06/15 09:51:13;;;;;;;;;;;24.20;44.00;;;;;;5039115;28;19924;-64
2023/06/15 09:53:39;;;;;;;;;;;24.10;44.10;;;;;;5036542;28;20028;-64
2023/06/15 09:56:05;;;;;;;;;;;24.20;44.10;;;;;;5040775;28;19920;-63
2023/06/15 09:58:31;;;;;;;;;;;24.20;44.10;;;;;;5038353;28;19974;-63
2023/06/15 10:00:57;;;;;;;;;;;24.10;44.10;;;;;;5054687;28;19925;-64
2023/06/15 10:03:23;;;;;;;;;;;24.20;44.20;;;;;;5041537;28;19924;-64
2023/06/15 10:05:52;;;;;;;;;;;24.10;44.10;;;;;;5053490;28;20805;-65
2023/06/15 10:08:18;;;;;;;;;;;24.10;44.10;;;;;;5056458;28;19947;-63
2023/06/15 10:10:44;;;;;;;;;;;24.10;44.10;;;;;;5034001;28;19932;-65
2023/06/15 10:13:12;;;;;;;;;;;24.10;44.10;;;;;;5051723;28;20025;-64
2023/06/15 10:15:37;;;;;;;;;;;24.10;44.10;;;;;;5055010;28;19921;-63
2023/06/15 10:18:05;;;;;;;;;;;24.10;44.10;;;;;;5061533;28;20058;-64
2023/06/15 10:20:33;;;;;;;;;;;24.10;44.10;;;;;;5039624;28;19921;-64
2023/06/15 10:23:04;;;;;;;;;;;24.10;44.10;;;;;;5040092;28;19932;-64
2023/06/15 10:25:31;;;;;;;;;;;24.10;44.10;;;;;;5040989;28;19928;-64
2023/06/15 10:27:58;;;;;;;;;;;24.10;44.10;;;;;;5051915;28;20012;-63
2023/06/15 10:30:29;;;;;;;;;;;24.10;44.20;;;;;;5034572;28;19920;-66
2023/06/15 10:33:15;;;;;;;;;;;24.10;44.20;;;;;;5028123;28;19931;-64
2023/06/15 10:35:50;;;;;;;;;;;24.10;44.10;;;;;;5038180;28;19920;-66
2023/06/15 10:40:58;;;;;;;;;;;24.10;44.20;;;;;;5072009;28;20303;-61
2023/06/15 10:43:25;;;;;;;;;;;24.10;44.10;;;;;;5052437;28;21018;-62
2023/06/15 10:45:52;;;;;;;;;;;24.10;43.70;;;;;;5047943;28;20072;-63
2023/06/15 10:48:22;;;;;;;;;;;24.10;43.30;;;;;;5049920;28;19924;-63
2023/06/15 10:50:50;;;;;;;;;;;24.20;43.30;;;;;;5054177;28;20292;-64
2023/06/15 10:53:20;;;;;;;;;;;24.20;43.20;;;;;;5055530;28;19929;-64
2023/06/15 10:55:48;;;;;;;;;;;24.20;43.30;;;;;;5055990;28;20293;-61
2023/06/15 10:58:15;;;;;;;;;;;24.30;43.40;;;;;;5053504;28;19931;-63
2023/06/15 11:00:41;;;;;;;;;;;24.30;43.40;;;;;;5057504;28;20356;-63
2023/06/15 11:03:22;;;;;;;;;;;24.30;43.70;;;;;;5052614;28;19968;-63
2023/06/15 11:05:47;;;;;;;;;;;24.30;43.70;;;;;;5055292;28;19991;-62
2023/06/15 11:08:14;;;;;;;;;;;24.30;43.70;;;;;;5055594;28;20053;-62
2023/06/15 11:10:42;;;;;;;;;;;24.30;43.90;;;;;;5051665;28;19924;-64
2023/06/15 11:13:08;;;;;;;;;;;24.30;43.90;;;;;;5048871;28;20002;-61
2023/06/15 11:15:34;;;;;;;;;;;24.30;44.50;;;;;;5057475;28;20387;-61
2023/06/15 11:18:03;;;;;;;;;;;24.30;43.40;;;;;;5058660;28;19936;-62
2023/06/15 11:20:48;;;;;;;;;;;24.40;43.40;;;;;;5057509;28;20020;-64
2023/06/15 11:23:16;;;;;;;;;;;24.40;43.20;;;;;;5057774;28;20260;-61
2023/06/15 11:25:42;;;;;;;;;;;24.40;42.70;;;;;;5048175;28;20019;-63
2023/06/15 11:28:09;;;;;;;;;;;24.50;42.70;;;;;;5066083;28;20040;-61
2023/06/15 11:30:34;;;;;;;;;;;24.50;42.60;;;;;;5058525;28;20343;-62
2023/06/15 11:33:00;;;;;;;;;;;24.50;42.60;;;;;;5053017;28;19929;-62
2023/06/15 11:35:25;;;;;;;;;;;24.50;42.80;;;;;;5057062;28;19925;-63
2023/06/15 11:37:51;;;;;;;;;;;24.50;43.00;;;;;;5053088;28;19931;-62
2023/06/15 11:40:16;;;;;;;;;;;24.50;42.60;;;;;;5055446;28;19928;-64
2023/06/15 11:42:42;;;;;;;;;;;24.50;42.60;;;;;;5056585;28;19932;-65
2023/06/15 11:45:18;;;;;;;;;;;24.50;42.10;;;;;;5072737;28;20437;-64
2023/06/15 11:47:45;;;;;;;;;;;24.50;41.90;;;;;;5070444;28;19928;-64
2023/06/15 11:50:11;;;;;;;;;;;24.60;41.90;;;;;;5055123;28;19924;-65
2023/06/15 11:52:41;;;;;;;;;;;24.60;41.60;;;;;;5042507;28;19924;-64
2023/06/15 11:55:08;;;;;;;;;;;24.70;41.60;;;;;;5033848;28;19931;-63
2023/06/15 11:57:34;;;;;;;;;;;24.60;42.20;;;;;;5052180;28;20630;-63
2023/06/15 12:00:00;;;;;;;;;;;24.60;40.90;;;;;;5045418;28;19933;-63
2023/06/15 12:02:25;;;;;;;;;;;24.60;40.70;;;;;;5059300;28;19928;-63
2023/06/15 12:04:55;;;;;;;;;;;24.60;40.70;;;;;;5044138;28;20012;-63
2023/06/15 12:07:21;;;;;;;;;;;24.60;40.50;;;;;;5045548;28;19931;-63
2023/06/15 12:09:47;;;;;;;;;;;24.70;40.40;;;;;;5043082;28;19928;-62
2023/06/15 12:12:32;;;;;;;;;;;24.70;40.40;;;;;;5047350;28;19925;-63
2023/06/15 12:14:58;;;;;;;;;;;24.70;40.40;;;;;;5038304;28;20430;-63
2023/06/15 12:17:29;;;;;;;;;;;24.70;40.40;;;;;;5036650;28;19924;-64
2023/06/15 12:19:58;;;;;;;;;;;24.70;40.60;;;;;;5036041;28;19996;-63
2023/06/15 12:22:31;;;;;;;;;;;24.80;40.70;;;;;;5037278;28;20032;-61
2023/06/15 12:24:58;;;;;;;;;;;24.80;40.70;;;;;;5042114;28;19931;-61
2023/06/15 12:27:24;;;;;;;;;;;24.80;40.90;;;;;;5042472;28;20504;-62
2023/06/15 12:29:52;;;;;;;;;;;24.80;40.90;;;;;;5041535;28;19935;-63
2023/06/15 12:32:25;;;;;;;;;;;24.80;41.00;;;;;;5037091;28;19924;-61
2023/06/15 12:34:51;;;;;;;;;;;24.80;41.10;;;;;;5024977;28;19947;-61
2023/06/15 12:37:16;;;;;;;;;;;24.80;41.20;;;;;;5039173;28;19921;-62
2023/06/15 12:39:43;;;;;;;;;;;24.80;41.30;;;;;;5051864;28;19929;-62
2023/06/15 12:42:09;;;;;;;;;;;24.80;41.40;;;;;;5044173;28;19928;-62
2023/06/15 12:44:35;;;;;;;;;;;24.90;41.50;;;;;;5062657;28;19978;-65
2023/06/15 12:47:00;;;;;;;;;;;24.90;41.60;;;;;;5061121;28;19932;-66
2023/06/15 12:49:25;;;;;;;;;;;24.90;41.40;;;;;;5046583;28;19920;-65
2023/06/15 12:51:52;;;;;;;;;;;24.90;41.20;;;;;;5047382;28;19979;-64
2023/06/15 12:54:18;;;;;;;;;;;24.90;41.10;;;;;;5064544;28;19947;-63
2023/06/15 12:56:43;;;;;;;;;;;24.90;40.90;;;;;;5041840;28;19939;-62
2023/06/15 12:59:09;;;;;;;;;;;24.90;41.00;;;;;;5040125;28;19932;-64
2023/06/15 13:01:34;;;;;;;;;;;25.00;41.10;;;;;;5041849;28;20154;-64
2023/06/15 13:04:00;;;;;;;;;;;25.00;41.30;;;;;;5060189;28;19920;-64
2023/06/15 13:06:26;;;;;;;;;;;25.00;41.10;;;;;;5044526;28;19928;-64
2023/06/15 13:08:52;;;;;;;;;;;25.00;40.70;;;;;;5046499;28;19921;-65
2023/06/15 13:11:17;;;;;;;;;;;25.00;40.00;;;;;;5066036;28;19927;-64
2023/06/15 13:13:43;;;;;;;;;;;25.00;39.80;;;;;;5046383;28;19932;-66
2023/06/15 13:16:08;;;;;;;;;;;25.10;39.40;;;;;;5043609;28;19960;-66
2023/06/15 13:18:34;;;;;;;;;;;25.10;39.20;;;;;;5043463;28;20327;-65
2023/06/15 13:21:00;;;;;;;;;;;25.10;38.90;;;;;;5046917;28;19924;-66
2023/06/15 13:23:25;;;;;;;;;;;25.10;38.80;;;;;;5055000;28;19948;-65
2023/06/15 13:25:51;;;;;;;;;;;25.20;38.40;;;;;;5057465;28;19926;-65
2023/06/15 13:28:17;;;;;;;;;;;25.20;38.50;;;;;;5061662;28;20301;-66
2023/06/15 13:30:43;;;;;;;;;;;25.20;38.50;;;;;;5058799;28;20024;-65
2023/06/15 13:33:09;;;;;;;;;;;25.20;38.60;;;;;;5067002;28;19956;-66
2023/06/15 13:35:34;;;;;;;;;;;25.20;38.60;;;;;;5046829;28;20342;-66
2023/06/15 13:38:00;;;;;;;;;;;25.20;38.70;;;;;;5047480;28;19924;-64
2023/06/15 13:40:25;;;;;;;;;;;25.20;38.80;;;;;;5045095;28;19924;-65
2023/06/15 13:42:51;;;;;;;;;;;25.30;38.60;;;;;;5046057;28;20011;-65
2023/06/15 13:45:16;;;;;;;;;;;25.20;38.40;;;;;;5046245;28;20426;-64
2023/06/15 13:47:42;;;;;;;;;;;25.30;38.90;;;;;;5047337;28;19928;-64
2023/06/15 13:50:09;;;;;;;;;;;25.30;38.90;;;;;;5045765;28;19925;-64
2023/06/15 13:52:36;;;;;;;;;;;25.30;39.20;;;;;;5045239;28;19921;-64
2023/06/15 13:55:02;;;;;;;;;;;25.30;38.90;;;;;;5044879;28;19921;-64
2023/06/15 13:57:28;;;;;;;;;;;25.30;38.70;;;;;;5043532;28;19921;-64
2023/06/15 13:59:54;;;;;;;;;;;25.40;38.90;;;;;;5044795;28;20273;-65
2023/06/15 14:02:19;;;;;;;;;;;25.40;38.60;;;;;;5045987;28;19928;-65
2023/06/15 14:04:46;;;;;;;;;;;25.40;38.40;;;;;;5044375;28;19921;-67
2023/06/15 14:07:12;;;;;;;;;;;25.40;38.20;;;;;;5046147;28;19974;-65
2023/06/15 14:09:37;;;;;;;;;;;25.40;38.10;;;;;;5045229;28;20365;-64
2023/06/15 14:12:03;;;;;;;;;;;25.40;38.10;;;;;;5046308;28;19932;-64
2023/06/15 14:14:30;;;;;;;;;;;25.40;38.20;;;;;;5067171;22;19986;-85